• Join FlightAware (Why Join?)
  • Login
  • US Flag 
04:55AM EDT


 

Airport Tracker/Info


-or-


 

Live Flight TrackerFlight Track Log ✈ ASA250 ✈ 30-Apr-2013 ✈ KLAX - MMMX / MEX

Flight Track Log - Related Links

Times and Time Zones

All times are in EDT time to prevent confusion due to time zone crossing. See the ASA250 flight status page for this flight to view local times or setup timezone preferences in your user account.

Time Position Orientation Groundspeed Altitude Reporting Facility
EDT Latitude Longitude Course Direction KTS MPH feet Rate Location/Type
11:17AM 33.9333 -118.4667 140° Southeast 199 229 2,200  Level Southern California TRACON
11:18AM 33.9000 -118.5333 239° Southwest 251 289 4,100 1,800 Climbing Southern California TRACON
11:19AM 33.8222 -118.5342 181° South 292 336 6,000 1,920 Climbing Los Angeles Center
11:20AM 33.7417 -118.5172 170° South 298 343 8,200 2,760 Climbing Los Angeles Center
11:21AM 33.6722 -118.4294 134° Southeast 311 358 11,800 3,000 Climbing Los Angeles Center
11:22AM 33.6556 -118.3169 100° East 356 410 14,400 2,880 Climbing Los Angeles Center
11:23AM 33.4835 -117.7002 140° Southeast  Level FlightAware Approximate
11:23AM 33.6592 -118.1725 88° East 373 429 17,900  Level Los Angeles Center
11:24AM 33.6614 -118.0461 89° East 381 438 20,800 2,400 Climbing Los Angeles Center
11:26AM 33.6531 -117.9167 94° East 397 457 22,900 1,620 Climbing Los Angeles Center
11:27AM 33.6069 -117.7931 114° Southeast 407 468 24,200 1,620 Climbing Los Angeles Center
11:28AM 33.5614 -117.6692 114° Southeast 408 470 26,300 1,980 Climbing Los Angeles Center
11:29AM 33.5075 -117.5222 114° Southeast 404 465 28,400 1,500 Climbing Los Angeles Center
11:30AM 33.4592 -117.3914 114° Southeast 423 487 29,500 1,200 Climbing Los Angeles Center
11:31AM 33.4106 -117.2597 114° Southeast 432 497 30,900 1,320 Climbing Los Angeles Center
11:32AM 33.3564 -117.1169 114° Southeast 437 503 32,300 1,200 Climbing Los Angeles Center
11:33AM 33.3067 -116.9831 114° Southeast 440 506 33,700 1,320 Climbing Los Angeles Center
11:34AM 33.2472 -116.8267 114° Southeast 434 499 35,400 1,260 Climbing Los Angeles Center
11:35AM 33.1983 -116.6972 114° Southeast 428 493 36,400 660 Climbing Los Angeles Center
11:36AM 33.1492 -116.5681 114° Southeast 427 491 37,000 240 Climbing Los Angeles Center
11:37AM 33.0889 -116.4111 115° Southeast 429 494 37,000  Level Los Angeles Center
11:38AM 33.0372 -116.2700 114° Southeast 429 494 37,000  Level Los Angeles Center
11:39AM 32.9778 -116.1228 116° Southeast 429 494 37,000  Level Los Angeles Center
11:40AM 32.9283 -115.9939 115° Southeast 426 490 37,000  Level Los Angeles Center
11:41AM 32.8786 -115.8656 115° Southeast 426 490 37,000  Level Los Angeles Center
11:42AM 32.8283 -115.7392 115° Southeast 424 488 37,000  Level Los Angeles Center
11:44AM 32.7322 -115.6161 133° Southeast 427 491 37,000  Level Los Angeles Center
11:46AM 32.6463 -115.3859 128° Southeast  Level FlightAware Approximate
11:53AM 32.1067 -114.5791 128° Southeast  Level FlightAware Approximate
11:54AM 32.0292 -114.4647 129° Southeast  Level FlightAware Approximate
11:55AM 31.9516 -114.3504 129° Southeast  Level FlightAware Approximate
11:56AM 31.8738 -114.2363 129° Southeast  Level FlightAware Approximate
11:57AM 31.7960 -114.1224 129° Southeast  Level FlightAware Approximate
11:58AM 31.7181 -114.0087 129° Southeast  Level FlightAware Approximate
11:59AM 31.6393 -113.8940 129° Southeast  Level FlightAware Approximate
12:00PM 31.5604 -113.7796 129° Southeast  Level FlightAware Approximate
12:01PM 31.4814 -113.6653 129° Southeast  Level FlightAware Approximate
12:02PM 31.4023 -113.5512 129° Southeast  Level FlightAware Approximate
12:03PM 31.3168 -113.4441 136° Southeast  Level FlightAware Approximate
12:04PM 31.2261 -113.3427 136° Southeast  Level FlightAware Approximate
12:05PM 31.1354 -113.2415 136° Southeast  Level FlightAware Approximate
12:06PM 31.0445 -113.1404 136° Southeast  Level FlightAware Approximate
12:07PM 30.9536 -113.0396 136° Southeast  Level FlightAware Approximate
12:08PM 30.8626 -112.9390 136° Southeast  Level FlightAware Approximate
12:09PM 30.7716 -112.8385 137° Southeast  Level FlightAware Approximate
12:10PM 30.6805 -112.7383 137° Southeast  Level FlightAware Approximate
12:11PM 30.5893 -112.6381 136° Southeast  Level FlightAware Approximate
12:12PM 30.4987 -112.5374 136° Southeast  Level FlightAware Approximate
12:13PM 30.4076 -112.4374 137° Southeast  Level FlightAware Approximate
12:14PM 30.3158 -112.3384 137° Southeast  Level FlightAware Approximate
12:15PM 30.2239 -112.2395 137° Southeast  Level FlightAware Approximate
12:16PM 30.1319 -112.1408 137° Southeast  Level FlightAware Approximate
12:17PM 30.0399 -112.0423 137° Southeast  Level FlightAware Approximate
12:18PM 29.9478 -111.9440 137° Southeast  Level FlightAware Approximate
12:19PM 29.8557 -111.8458 137° Southeast  Level FlightAware Approximate
12:20PM 29.7634 -111.7479 137° Southeast  Level FlightAware Approximate
12:21PM 29.6711 -111.6501 137° Southeast  Level FlightAware Approximate
12:22PM 29.5787 -111.5525 137° Southeast  Level FlightAware Approximate
12:23PM 29.4863 -111.4550 137° Southeast  Level FlightAware Approximate
12:24PM 29.3938 -111.3578 138° Southeast  Level FlightAware Approximate
12:25PM 29.3012 -111.2607 138° Southeast  Level FlightAware Approximate
12:26PM 29.2085 -111.1638 138° Southeast  Level FlightAware Approximate
12:27PM 29.1158 -111.0671 138° Southeast  Level FlightAware Approximate
12:28PM 29.0264 -110.9665 134° Southeast  Level FlightAware Approximate
12:29PM 28.9387 -110.8639 134° Southeast  Level FlightAware Approximate
12:30PM 28.8510 -110.7615 134° Southeast  Level FlightAware Approximate
12:31PM 28.7632 -110.6593 134° Southeast  Level FlightAware Approximate
12:32PM 28.6754 -110.5572 134° Southeast  Level FlightAware Approximate
12:33PM 28.5874 -110.4553 134° Southeast  Level FlightAware Approximate
12:34PM 28.4994 -110.3536 135° Southeast  Level FlightAware Approximate
12:35PM 28.4113 -110.2521 135° Southeast  Level FlightAware Approximate
12:36PM 28.3231 -110.1507 135° Southeast  Level FlightAware Approximate
12:37PM 28.2349 -110.0495 135° Southeast  Level FlightAware Approximate
12:38PM 28.1465 -109.9484 135° Southeast  Level FlightAware Approximate
12:39PM 28.0581 -109.8475 135° Southeast  Level FlightAware Approximate
12:40PM 27.9697 -109.7468 135° Southeast  Level FlightAware Approximate
12:41PM 27.8811 -109.6463 135° Southeast  Level FlightAware Approximate
12:42PM 27.7925 -109.5459 135° Southeast  Level FlightAware Approximate
12:43PM 27.7058 -109.4435 133° Southeast  Level FlightAware Approximate
12:44PM 27.6199 -109.3403 133° Southeast  Level FlightAware Approximate
12:45PM 27.5339 -109.2373 133° Southeast  Level FlightAware Approximate
12:46PM 27.4453 -109.1372 135° Southeast  Level FlightAware Approximate
12:47PM 27.3560 -109.0380 135° Southeast  Level FlightAware Approximate
12:48PM 27.2666 -108.9390 135° Southeast  Level FlightAware Approximate
12:49PM 27.1771 -108.8401 135° Southeast  Level FlightAware Approximate
12:50PM 27.0876 -108.7414 136° Southeast  Level FlightAware Approximate
12:51PM 26.9980 -108.6428 136° Southeast  Level FlightAware Approximate
12:52PM 26.9083 -108.5444 136° Southeast  Level FlightAware Approximate
12:53PM 26.8186 -108.4462 136° Southeast  Level FlightAware Approximate
12:54PM 26.7288 -108.3481 136° Southeast  Level FlightAware Approximate
12:55PM 26.6507 -108.2389 125° Southeast  Level FlightAware Approximate
12:56PM 26.5780 -108.1246 125° Southeast  Level FlightAware Approximate
12:57PM 26.5052 -108.0104 125° Southeast  Level FlightAware Approximate
12:58PM 26.4316 -107.8969 126° Southeast  Level FlightAware Approximate
12:59PM 26.3571 -107.7843 126° Southeast  Level FlightAware Approximate
01:00PM 26.2824 -107.6718 126° Southeast  Level FlightAware Approximate
01:01PM 26.2078 -107.5595 127° Southeast  Level FlightAware Approximate
01:02PM 26.1330 -107.4473 127° Southeast  Level FlightAware Approximate
01:03PM 26.0581 -107.3352 127° Southeast  Level FlightAware Approximate
01:04PM 25.9831 -107.2233 127° Southeast  Level FlightAware Approximate
01:05PM 25.9081 -107.1115 127° Southeast  Level FlightAware Approximate
01:06PM 25.8336 -106.9994 126° Southeast  Level FlightAware Approximate
01:07PM 25.7598 -106.8867 126° Southeast  Level FlightAware Approximate
01:08PM 25.6859 -106.7742 126° Southeast  Level FlightAware Approximate
01:09PM 25.6119 -106.6619 126° Southeast  Level FlightAware Approximate
01:10PM 25.5378 -106.5497 126° Southeast  Level FlightAware Approximate
01:11PM 25.4637 -106.4376 126° Southeast  Level FlightAware Approximate
01:12PM 25.3891 -106.3259 127° Southeast  Level FlightAware Approximate
01:13PM 25.3138 -106.2149 127° Southeast  Level FlightAware Approximate
01:14PM 25.2384 -106.1040 127° Southeast  Level FlightAware Approximate
01:15PM 25.1629 -105.9933 127° Southeast  Level FlightAware Approximate
01:16PM 25.0856 -105.8842 129° Southeast  Level FlightAware Approximate
01:17PM 25.0072 -105.7762 129° Southeast  Level FlightAware Approximate
01:18PM 24.9286 -105.6683 129° Southeast  Level FlightAware Approximate
01:19PM 24.8505 -105.5601 127° Southeast  Level FlightAware Approximate
01:20PM 24.7742 -105.4505 127° Southeast  Level FlightAware Approximate
01:21PM 24.6977 -105.3410 128° Southeast  Level FlightAware Approximate
01:22PM 24.6212 -105.2316 128° Southeast  Level FlightAware Approximate
01:23PM 24.5446 -105.1224 128° Southeast  Level FlightAware Approximate
01:24PM 24.4679 -105.0133 128° Southeast  Level FlightAware Approximate
01:25PM 24.3912 -104.9044 128° Southeast  Level FlightAware Approximate
01:26PM 24.3143 -104.7955 128° Southeast  Level FlightAware Approximate
01:27PM 24.2374 -104.6868 128° Southeast  Level FlightAware Approximate
01:28PM 24.1604 -104.5783 128° Southeast  Level FlightAware Approximate
01:29PM 24.0853 -104.4683 125° Southeast  Level FlightAware Approximate
01:30PM 24.0125 -104.3564 125° Southeast  Level FlightAware Approximate
01:31PM 23.9397 -104.2446 125° Southeast  Level FlightAware Approximate
01:32PM 23.8668 -104.1329 126° Southeast  Level FlightAware Approximate
01:33PM 23.7939 -104.0214 126° Southeast  Level FlightAware Approximate
01:34PM 23.7208 -103.9100 126° Southeast  Level FlightAware Approximate
01:35PM 23.6477 -103.7987 126° Southeast  Level FlightAware Approximate
01:36PM 23.5745 -103.6876 126° Southeast  Level FlightAware Approximate
01:37PM 23.5007 -103.5769 127° Southeast  Level FlightAware Approximate
01:38PM 23.4250 -103.4679 127° Southeast  Level FlightAware Approximate
01:39PM 23.3492 -103.3590 127° Southeast  Level FlightAware Approximate
01:40PM 23.2734 -103.2502 127° Southeast  Level FlightAware Approximate
01:41PM 23.1974 -103.1416 127° Southeast  Level FlightAware Approximate
01:42PM 23.1217 -103.0328 126° Southeast  Level FlightAware Approximate
01:43PM 23.0471 -102.9232 126° Southeast  Level FlightAware Approximate
01:44PM 22.9724 -102.8137 127° Southeast  Level FlightAware Approximate
01:45PM 22.8977 -102.7043 127° Southeast  Level FlightAware Approximate
01:46PM 22.8121 -102.6051 135° Southeast  Level FlightAware Approximate
01:47PM 22.7240 -102.5083 135° Southeast  Level FlightAware Approximate
01:48PM 22.6357 -102.4117 135° Southeast  Level FlightAware Approximate
01:49PM 22.5475 -102.3152 135° Southeast  Level FlightAware Approximate
01:50PM 22.4591 -102.2188 135° Southeast  Level FlightAware Approximate
01:51PM 22.3707 -102.1225 135° Southeast  Level FlightAware Approximate
01:52PM 22.2837 -102.0248 134° Southeast  Level FlightAware Approximate
01:53PM 22.1972 -101.9268 134° Southeast  Level FlightAware Approximate
01:54PM 22.1105 -101.8288 134° Southeast  Level FlightAware Approximate
01:55PM 22.0238 -101.7310 134° Southeast  Level FlightAware Approximate
01:56PM 21.9371 -101.6333 134° Southeast  Level FlightAware Approximate
01:57PM 21.8503 -101.5357 134° Southeast  Level FlightAware Approximate
01:58PM 21.7636 -101.4381 134° Southeast  Level FlightAware Approximate
01:59PM 21.6763 -101.3411 135° Southeast  Level FlightAware Approximate
02:00PM 21.5876 -101.2458 135° Southeast  Level FlightAware Approximate
02:01PM 21.4988 -101.1505 135° Southeast  Level FlightAware Approximate
02:02PM 21.4100 -101.0554 135° Southeast  Level FlightAware Approximate
02:03PM 21.3211 -100.9603 135° Southeast  Level FlightAware Approximate
02:04PM 21.2322 -100.8654 134° Southeast  Level FlightAware Approximate
02:05PM 21.1457 -100.7680 134° Southeast  Level FlightAware Approximate
02:06PM 21.0581 -100.6717 135° Southeast  Level FlightAware Approximate
02:07PM 20.9694 -100.5766 135° Southeast  Level FlightAware Approximate
02:08PM 20.8807 -100.4817 135° Southeast  Level FlightAware Approximate
02:09PM 20.7975 -100.3815 145° Southeast  Level FlightAware Approximate
02:10PM 20.7016 -100.2962 132° Southeast  Level FlightAware Approximate
02:11PM 20.6218 -100.1936 118° Southeast  Level FlightAware Approximate
02:12PM 20.5405 -100.0920 132° Southeast  Level FlightAware Approximate
02:13PM 20.4639 -99.9860 127° Southeast  Level FlightAware Approximate
02:14PM 20.3878 -99.8796 127° Southeast  Level FlightAware Approximate
02:15PM 20.3080 -99.7765 130° Southeast  Level FlightAware Approximate
02:16PM 20.2267 -99.6747 130° Southeast  Level FlightAware Approximate
02:17PM 20.1453 -99.5730 130° Southeast  Level FlightAware Approximate
02:18PM 20.0639 -99.4714 130° Southeast  Level FlightAware Approximate
02:19PM 19.9880 -99.3652 125° Southeast  Level FlightAware Approximate
02:20PM 19.9188 -99.2542 118° Southeast  Level FlightAware Approximate
02:21PM 19.8343 -99.1558 133° Southeast  Level FlightAware Approximate
02:22PM 19.7566 -99.0515 125° Southeast  Level FlightAware Approximate
02:23PM 19.6499 -99.0333 180° South  Level FlightAware Approximate
02:24PM 19.5255 -99.0449 191° South  Level FlightAware Approximate
02:25PM 19.4363 -99.0721 191° South  Level Estimated
02:26PM 19.4363 -99.0721 191° South  Level Estimated
02:27PM 19.4363 -99.0721 191° South  Level Estimated
02:28PM 19.4363 -99.0721 191° South  Level Estimated
02:29PM 19.4363 -99.0721 191° South  Level Estimated
02:30PM 19.4363 -99.0721 191° South  Level Estimated
02:31PM 19.4363 -99.0721 191° South  Level Estimated
02:32PM 19.4363 -99.0721 191° South  Level Estimated
02:33PM 19.4363 -99.0721 191° South  Level Estimated
02:34PM 19.4363 -99.0721 191° South  Level Estimated
02:35PM 19.4363 -99.0721 191° South  Level Estimated